KLM617 EHAM-KBOS
Flight info
| Callsign | KLM617 |
|---|---|
| Flight time | N/A |
| Altitude | 34000 |
| Route | BERGI L602 NALAX L46 GETNO DCT NIBOG DCT PIKIL/M084F350 NATG JANJO/N0486F360 N710B TAFFY DCT PQI DCT BGR DCT AJJAY OOSHN5 |
| Aircraft | B77W/H-SDE1E2E3FGHIJ2J3J4J5M1RWXY/LB1D1 |
Departure
| Time | 2026-04-17 13:41 |
|---|---|
| Airport | Amsterdam Airport Schiphol (EHAM) |
Arrival
| Time | N/A |
|---|---|
| Airport | Boston Logan International Airport (KBOS) |
| Time | Latitude | Longitude | Altitude | Speed | Heading |
|---|---|---|---|---|---|
| 2026-04-17 13:18 | 52.31024 | 4.76620 | 4 ft | 0 kts | 304° |
| 2026-04-17 13:32 | 52.31015 | 4.76643 | 31 ft | 3 kts | 295° |
| 2026-04-17 13:33 | 52.31009 | 4.76674 | 32 ft | 3 kts | 277° |
| 2026-04-17 13:33 | 52.31007 | 4.76705 | 6 ft | 3 kts | 274° |
| 2026-04-17 13:33 | 52.31006 | 4.76735 | 5 ft | 3 kts | 274° |
| 2026-04-17 13:33 | 52.31004 | 4.76766 | 6 ft | 3 kts | 274° |
| 2026-04-17 13:34 | 52.31004 | 4.76798 | 6 ft | 3 kts | 258° |
| 2026-04-17 13:34 | 52.31010 | 4.76829 | 6 ft | 3 kts | 240° |
| 2026-04-17 13:34 | 52.31022 | 4.76855 | 7 ft | 3 kts | 222° |
| 2026-04-17 13:34 | 52.31038 | 4.76874 | 6 ft | 3 kts | 206° |
| 2026-04-17 13:35 | 52.31055 | 4.76888 | 6 ft | 3 kts | 206° |
| 2026-04-17 13:35 | 52.31072 | 4.76901 | 7 ft | 3 kts | 206° |
| 2026-04-17 13:35 | 52.31088 | 4.76914 | 7 ft | 3 kts | 206° |
| 2026-04-17 13:35 | 52.31104 | 4.76927 | 6 ft | 3 kts | 206° |
| 2026-04-17 13:36 | 52.31121 | 4.76940 | 6 ft | 2 kts | 206° |
| 2026-04-17 13:36 | 52.31122 | 4.76941 | 6 ft | 0 kts | 206° |
| 2026-04-17 13:36 | 52.31122 | 4.76940 | 6 ft | 1 kts | 206° |
| 2026-04-17 13:37 | 52.31117 | 4.76937 | 6 ft | 0 kts | 206° |
| 2026-04-17 13:37 | 52.31116 | 4.76936 | 6 ft | 4 kts | 206° |
| 2026-04-17 13:37 | 52.31109 | 4.76931 | 4 ft | 0 kts | 206° |
| 2026-04-17 13:38 | 52.31107 | 4.76930 | 4 ft | 1 kts | 200° |
| 2026-04-17 13:38 | 52.31087 | 4.76953 | 4 ft | 10 kts | 131° |
| 2026-04-17 13:38 | 52.31074 | 4.77101 | 4 ft | 18 kts | 93° |
| 2026-04-17 13:39 | 52.31064 | 4.77377 | 4 ft | 31 kts | 93° |
| 2026-04-17 13:39 | 52.31019 | 4.77501 | 4 ft | 9 kts | 180° |
| 2026-04-17 13:39 | 52.30934 | 4.77481 | 4 ft | 18 kts | 185° |
| 2026-04-17 13:39 | 52.30804 | 4.77466 | 4 ft | 19 kts | 183° |
| 2026-04-17 13:40 | 52.30675 | 4.77465 | 5 ft | 19 kts | 167° |
| 2026-04-17 13:40 | 52.30553 | 4.77560 | 4 ft | 20 kts | 153° |
| 2026-04-17 13:40 | 52.30432 | 4.77631 | 4 ft | 14 kts | 190° |
| 2026-04-17 13:40 | 52.30367 | 4.77512 | 3 ft | 19 kts | 238° |
| 2026-04-17 13:41 | 52.30221 | 4.77132 | 2 ft | 76 kts | 238° |
| 2026-04-17 13:41 | 52.29762 | 4.75937 | 4 ft | 171 kts | 238° |
| 2026-04-17 13:41 | 52.29039 | 4.74014 | 500 ft | 207 kts | 237° |
| 2026-04-17 13:41 | 52.28271 | 4.72079 | 1237 ft | 207 kts | 235° |
| 2026-04-17 13:42 | 52.27472 | 4.70103 | 1900 ft | 208 kts | 234° |
| 2026-04-17 13:42 | 52.26496 | 4.68359 | 2571 ft | 205 kts | 221° |
| 2026-04-17 13:42 | 52.25454 | 4.66764 | 3297 ft | 214 kts | 222° |
| 2026-04-17 13:42 | 52.24413 | 4.65006 | 3972 ft | 220 kts | 234° |
| 2026-04-17 13:43 | 52.23816 | 4.62584 | 4855 ft | 241 kts | 252° |
| 2026-04-17 13:43 | 52.23335 | 4.59918 | 5514 ft | 247 kts | 249° |
| 2026-04-17 13:43 | 52.22988 | 4.57158 | 6290 ft | 256 kts | 272° |
| 2026-04-17 13:43 | 52.23608 | 4.54425 | 7042 ft | 268 kts | 308° |
| 2026-04-17 13:44 | 52.25097 | 4.52587 | 7835 ft | 270 kts | 329° |
| 2026-04-17 13:44 | 52.26761 | 4.51063 | 8643 ft | 276 kts | 326° |
| 2026-04-17 13:44 | 52.28412 | 4.49438 | 9403 ft | 280 kts | 325° |
| 2026-04-17 13:44 | 52.30085 | 4.47774 | 10204 ft | 283 kts | 325° |
| 2026-04-17 13:45 | 52.31786 | 4.46079 | 10937 ft | 294 kts | 325° |
| 2026-04-17 13:45 | 52.32952 | 4.44914 | 11475 ft | 306 kts | 325° |
| 2026-04-17 13:45 | 52.33462 | 4.44404 | 11698 ft | 311 kts | 325° |
| 2026-04-17 13:45 | 52.35351 | 4.42562 | 12496 ft | 326 kts | 330° |
| 2026-04-17 13:46 | 52.37580 | 4.41494 | 13269 ft | 341 kts | 352° |
| 2026-04-17 13:46 | 52.39954 | 4.41302 | 14106 ft | 350 kts | 353° |
| 2026-04-17 13:46 | 52.42412 | 4.41022 | 14854 ft | 356 kts | 352° |
| 2026-04-17 13:46 | 52.43249 | 4.40905 | 15084 ft | 356 kts | 352° |
| 2026-04-17 13:47 | 52.44827 | 4.40672 | 15553 ft | 358 kts | 351° |
| 2026-04-17 13:47 | 52.47300 | 4.40192 | 16275 ft | 354 kts | 343° |
| 2026-04-17 13:47 | 52.49527 | 4.38727 | 17018 ft | 349 kts | 321° |